Time;durP1;ratioP1;P1;durP2;ratioP2;P2;SDS_P1;SDS_P2;PMS_P1;PMS_P2;Temp;Humidity;BMP_temperature;BMP_pressure;BME280_temperature;BME280_humidity;BME280_pressure;Samples;Min_cycle;Max_cycle;Signal;HPM_P1;HPM_P2
2023/09/10 00:01:05;;;;;;;5.20;4.57;;;;;;;28.18;36.25;99307.66;4992952;28;20030;-71
2023/09/10 00:03:32;;;;;;;6.13;4.50;;;;;;;28.18;35.75;99305.81;4992899;28;20542;-71
2023/09/10 00:05:59;;;;;;;6.38;5.05;;;;;;;28.18;35.81;99308.47;5008946;28;20030;-71
2023/09/10 00:08:25;;;;;;;5.60;4.78;;;;;;;28.18;36.19;99323.75;5011963;28;20022;-71
2023/09/10 00:10:51;;;;;;;5.70;4.40;;;;;;;28.17;36.00;99301.44;5008119;28;20030;-71
2023/09/10 00:13:17;;;;;;;5.43;4.68;;;;;;;28.18;35.88;99295.06;4992617;28;20049;-71
2023/09/10 00:15:42;;;;;;;5.18;4.65;;;;;;;28.20;36.12;99300.28;4993015;28;20030;-70
2023/09/10 00:18:07;;;;;;;5.72;4.28;;;;;;;28.17;36.01;99284.50;4991460;28;20450;-71
2023/09/10 00:20:33;;;;;;;6.03;4.45;;;;;;;28.13;35.90;99300.88;4992881;28;20018;-72
2023/09/10 00:22:58;;;;;;;5.95;4.70;;;;;;;28.15;35.86;99301.56;4992402;28;20030;-71
2023/09/10 00:25:24;;;;;;;5.18;4.57;;;;;;;28.13;35.74;99295.50;4992470;28;20026;-72
2023/09/10 00:27:49;;;;;;;7.10;4.80;;;;;;;28.15;35.92;99293.53;4992797;28;20029;-71
2023/09/10 00:30:15;;;;;;;5.30;4.80;;;;;;;28.16;36.07;99291.69;4992770;28;20449;-72
2023/09/10 00:32:40;;;;;;;5.88;4.85;;;;;;;28.13;35.97;99290.16;4992837;28;20022;-72
2023/09/10 00:35:08;;;;;;;6.00;4.70;;;;;;;28.11;36.10;99281.41;4992497;28;20031;-71
2023/09/10 00:37:33;;;;;;;5.30;4.25;;;;;;;28.12;35.74;99282.25;4992519;28;20034;-71
2023/09/10 00:39:58;;;;;;;5.75;4.68;;;;;;;28.12;35.91;99291.16;4992428;28;20022;-71
2023/09/10 00:42:24;;;;;;;6.35;5.03;;;;;;;28.09;35.76;99293.28;4992070;28;20026;-71
2023/09/10 00:44:49;;;;;;;6.38;4.38;;;;;;;28.07;35.83;99295.22;4991214;28;20626;-71
2023/09/10 00:47:15;;;;;;;6.18;4.93;;;;;;;28.08;36.03;99287.06;4991295;28;20018;-71
2023/09/10 00:49:41;;;;;;;5.78;4.63;;;;;;;28.07;36.22;99289.88;4992612;28;20062;-71
2023/09/10 00:52:07;;;;;;;4.93;4.38;;;;;;;28.07;36.13;99290.72;4992686;28;20386;-71
2023/09/10 00:54:34;;;;;;;5.10;4.30;;;;;;;28.08;35.98;99297.78;4992190;28;20482;-71
2023/09/10 00:57:01;;;;;;;5.97;4.80;;;;;;;28.07;35.92;99290.72;4992056;28;20026;-72
2023/09/10 00:59:30;;;;;;;5.60;4.40;;;;;;;28.06;36.18;99291.72;4992419;28;20023;-71
2023/09/10 01:01:58;;;;;;;5.45;4.60;;;;;;;28.04;36.30;99282.13;4991931;28;20049;-72
2023/09/10 01:04:23;;;;;;;5.32;4.80;;;;;;;28.04;36.07;99279.44;4995864;28;20030;-71
2023/09/10 01:06:51;;;;;;;5.03;4.20;;;;;;;28.03;35.88;99277.75;5011778;28;20407;-71
2023/09/10 01:09:16;;;;;;;6.00;4.60;;;;;;;28.02;35.94;99271.53;5011842;28;20034;-71
2023/09/10 01:12:05;;;;;;;4.97;4.15;;;;;;;28.00;35.83;99268.16;5000158;28;20030;-72
2023/09/10 01:14:42;;;;;;;6.15;4.38;;;;;;;28.01;36.32;99275.22;4992557;28;20031;-72
2023/09/10 01:17:13;;;;;;;5.22;4.40;;;;;;;28.02;36.27;99274.22;4992360;28;20026;-71
2023/09/10 01:19:44;;;;;;;5.18;4.35;;;;;;;27.98;35.89;99270.13;4993113;28;20495;-71
2023/09/10 01:22:12;;;;;;;5.25;4.47;;;;;;;27.97;35.92;99265.75;4995386;28;20030;-71
2023/09/10 01:24:57;;;;;;;5.05;3.92;;;;;;;27.97;36.03;99268.44;4995847;28;20030;-71
2023/09/10 01:27:22;;;;;;;5.72;4.53;;;;;;;27.97;36.16;99273.81;4995875;28;20057;-71
2023/09/10 01:29:48;;;;;;;6.47;4.55;;;;;;;27.95;36.10;99270.44;4995651;28;20030;-70
2023/09/10 01:32:32;;;;;;;5.03;4.20;;;;;;;27.94;35.97;99271.44;4995645;28;20116;-72
2023/09/10 01:35:17;;;;;;;5.30;4.38;;;;;;;27.92;36.39;99265.34;4995294;28;20487;-71
2023/09/10 01:37:53;;;;;;;6.07;4.63;;;;;;;27.88;35.95;99265.66;4994945;28;20453;-71
2023/09/10 01:40:22;;;;;;;4.80;4.25;;;;;;;27.92;36.17;99265.34;4995532;28;20058;-72
2023/09/10 01:42:49;;;;;;;5.30;3.95;;;;;;;27.88;36.02;99273.69;4995469;28;20034;-71
2023/09/10 01:45:15;;;;;;;5.40;4.30;;;;;;;27.86;36.18;99275.69;4995310;28;20061;-71
2023/09/10 01:47:40;;;;;;;5.72;3.97;;;;;;;27.84;35.97;99274.97;4995461;28;20022;-71
2023/09/10 01:50:07;;;;;;;5.68;4.88;;;;;;;27.82;36.02;99276.94;4995373;28;20590;-71
2023/09/10 01:52:33;;;;;;;4.70;4.13;;;;;;;27.81;35.92;99272.59;4995082;28;20030;-71
2023/09/10 01:54:58;;;;;;;5.00;4.40;;;;;;;27.82;36.23;99271.59;4995161;28;20399;-72
2023/09/10 01:57:24;;;;;;;5.38;4.30;;;;;;;27.81;36.00;99280.63;4995392;28;20414;-71
2023/09/10 01:59:49;;;;;;;5.07;4.07;;;;;;;27.79;36.04;99285.25;4995278;28;20021;-72
2023/09/10 02:02:15;;;;;;;4.85;4.35;;;;;;;27.81;35.93;99291.34;4995031;28;20279;-71
2023/09/10 02:04:41;;;;;;;6.32;4.32;;;;;;;27.81;36.34;99296.72;5000633;28;20482;-71
2023/09/10 02:07:06;;;;;;;4.97;4.20;;;;;;;27.81;36.03;99307.44;5014683;28;20053;-71
2023/09/10 02:09:31;;;;;;;5.55;4.20;;;;;;;27.78;36.12;99307.69;5009788;28;20486;-71
2023/09/10 02:11:57;;;;;;;5.50;4.78;;;;;;;27.79;36.00;99306.72;4994948;28;20030;-71
2023/09/10 02:14:23;;;;;;;5.28;4.53;;;;;;;27.80;36.35;99300.34;4993642;28;20484;-71
2023/09/10 02:16:48;;;;;;;5.00;4.13;;;;;;;27.81;36.40;99304.75;4994737;28;20030;-71
2023/09/10 02:19:14;;;;;;;4.47;3.88;;;;;;;27.79;36.09;99298.66;4994377;28;20438;-71
2023/09/10 02:21:39;;;;;;;5.72;4.63;;;;;;;27.79;36.33;99293.31;4994524;28;20038;-71
2023/09/10 02:24:05;;;;;;;5.55;4.40;;;;;;;27.79;36.06;99293.31;4994705;28;20022;-71
2023/09/10 02:26:30;;;;;;;5.18;4.07;;;;;;;27.78;36.40;99285.44;4994648;28;20537;-70
2023/09/10 02:28:56;;;;;;;5.13;4.35;;;;;;;27.77;36.15;99289.94;4994708;28;20553;-72
2023/09/10 02:31:22;;;;;;;4.85;4.05;;;;;;;27.74;36.06;99291.06;4994116;28;20014;-70
2023/09/10 02:33:47;;;;;;;6.25;4.47;;;;;;;27.77;35.97;99295.28;4994205;28;20046;-71
2023/09/10 02:36:12;;;;;;;5.30;4.50;;;;;;;27.77;36.39;99299.78;4994424;28;20026;-71
2023/09/10 02:38:38;;;;;;;4.68;3.78;;;;;;;27.73;36.31;99309.97;4994648;28;20050;-71
2023/09/10 02:41:03;;;;;;;4.70;4.15;;;;;;;27.71;36.35;99312.78;4994587;28;20168;-71
2023/09/10 02:43:29;;;;;;;4.80;4.30;;;;;;;27.71;36.15;99318.13;4994530;28;20030;-71
2023/09/10 02:45:54;;;;;;;5.47;3.97;;;;;;;27.72;36.24;99327.03;4994484;28;20181;-71
2023/09/10 02:48:19;;;;;;;5.53;4.50;;;;;;;27.72;36.29;99340.44;4993897;28;20026;-71
2023/09/10 02:50:45;;;;;;;5.40;3.83;;;;;;;27.73;36.42;99343.00;4994199;28;20034;-72
2023/09/10 02:53:10;;;;;;;4.80;4.10;;;;;;;27.73;36.20;99352.84;4993985;28;20061;-71
2023/09/10 02:55:36;;;;;;;4.78;3.90;;;;;;;27.74;36.38;99370.63;4994430;28;20027;-71
2023/09/10 02:58:01;;;;;;;5.18;4.32;;;;;;;27.73;36.51;99374.28;4994068;28;20022;-71
2023/09/10 03:00:26;;;;;;;5.03;4.18;;;;;;;27.72;36.44;99381.50;4994065;28;20041;-70
2023/09/10 03:02:55;;;;;;;5.63;4.50;;;;;;;27.73;36.54;99371.63;4993491;28;20077;-71
2023/09/10 03:05:21;;;;;;;5.07;4.40;;;;;;;27.74;36.62;99375.97;5004971;28;20398;-71
2023/09/10 03:07:51;;;;;;;5.68;4.70;;;;;;;27.74;36.11;99373.31;4995769;28;20093;-71
2023/09/10 03:10:16;;;;;;;5.20;4.60;;;;;;;27.73;36.37;99374.28;4992202;28;20022;-71
2023/09/10 03:12:42;;;;;;;5.13;4.22;;;;;;;27.72;36.31;99386.00;5005387;28;20387;-72
2023/09/10 03:15:07;;;;;;;4.90;4.20;;;;;;;27.73;36.25;99396.59;4974443;28;20101;-71
2023/09/10 03:17:33;;;;;;;4.70;4.18;;;;;;;27.74;36.49;99402.78;4974116;28;20093;-71
2023/09/10 03:19:58;;;;;;;5.22;4.05;;;;;;;27.73;36.29;99406.47;4989729;28;20081;-71
2023/09/10 03:22:24;;;;;;;4.60;4.05;;;;;;;27.75;36.40;99401.81;4993774;28;20065;-72
2023/09/10 03:24:49;;;;;;;4.65;4.10;;;;;;;27.74;36.60;99408.16;4993567;28;20030;-71
2023/09/10 03:27:14;;;;;;;5.28;4.45;;;;;;;27.74;36.67;99402.78;4993760;28;20027;-71
2023/09/10 03:29:42;;;;;;;5.35;4.35;;;;;;;27.74;36.40;99386.72;4974077;28;20102;-71
2023/09/10 03:32:07;;;;;;;5.32;4.65;;;;;;;27.76;36.53;99383.88;4986450;28;20026;-71
2023/09/10 03:34:33;;;;;;;5.30;4.65;;;;;;;27.75;36.74;99399.16;4993325;28;20030;-71
2023/09/10 03:36:58;;;;;;;5.88;4.72;;;;;;;27.74;36.41;99384.03;4993510;28;20098;-71
2023/09/10 03:39:24;;;;;;;5.05;4.40;;;;;;;27.74;36.50;99394.75;4992115;28;20465;-71
2023/09/10 03:41:51;;;;;;;5.85;5.00;;;;;;;27.74;36.65;99394.75;4993166;28;20061;-71
2023/09/10 03:44:17;;;;;;;5.00;4.50;;;;;;;27.74;36.54;99397.44;4992456;28;20034;-71
2023/09/10 03:46:42;;;;;;;4.80;4.10;;;;;;;27.72;36.56;99392.22;4992895;28;20033;-71
2023/09/10 03:49:08;;;;;;;5.25;4.60;;;;;;;27.73;36.35;99395.75;4993267;28;20443;-70
2023/09/10 03:51:33;;;;;;;6.25;4.25;;;;;;;27.72;36.73;99394.06;4993131;28;20038;-71
2023/09/10 03:53:59;;;;;;;4.88;4.30;;;;;;;27.73;36.54;99401.09;4991657;28;20494;-71
2023/09/10 03:56:25;;;;;;;5.63;4.70;;;;;;;27.72;36.77;99402.09;4992870;28;20054;-71
2023/09/10 03:58:50;;;;;;;5.72;4.60;;;;;;;27.72;36.81;99404.78;4993011;28;20133;-71
2023/09/10 04:01:16;;;;;;;5.57;4.18;;;;;;;27.73;36.77;99414.50;4992456;28;20471;-71
2023/09/10 04:03:41;;;;;;;5.43;4.80;;;;;;;27.72;36.87;99404.78;4993070;28;20092;-71
2023/09/10 04:06:07;;;;;;;5.38;4.60;;;;;;;27.70;36.82;99407.59;5010364;28;20068;-70
2023/09/10 04:08:32;;;;;;;5.93;4.22;;;;;;;27.70;36.60;99417.47;5012555;28;20026;-70
2023/09/10 04:10:57;;;;;;;5.22;4.32;;;;;;;27.70;36.70;99422.84;4996938;28;20076;-71
2023/09/10 04:13:23;;;;;;;5.10;4.57;;;;;;;27.70;36.91;99418.31;4992610;28;20407;-71
2023/09/10 04:15:48;;;;;;;4.90;4.40;;;;;;;27.68;36.65;99435.50;4992674;28;20026;-70
2023/09/10 04:18:14;;;;;;;5.65;4.60;;;;;;;27.67;36.97;99428.47;4992306;28;20813;-72
2023/09/10 04:20:39;;;;;;;5.15;4.32;;;;;;;27.66;37.03;99438.34;4992710;28;20101;-71
2023/09/10 04:23:04;;;;;;;5.00;4.40;;;;;;;27.66;36.63;99442.84;4992777;28;20486;-72
2023/09/10 04:25:31;;;;;;;5.80;4.90;;;;;;;27.66;37.04;99448.22;4992938;28;20030;-71
2023/09/10 04:27:57;;;;;;;4.90;4.40;;;;;;;27.69;36.73;99458.69;4992521;28;20030;-71
2023/09/10 04:30:22;;;;;;;5.45;4.75;;;;;;;27.66;36.92;99458.94;4992484;28;20121;-71
2023/09/10 04:32:48;;;;;;;5.38;4.65;;;;;;;27.66;37.11;99450.91;4992566;28;20105;-72
2023/09/10 04:35:13;;;;;;;5.22;4.72;;;;;;;27.68;37.12;99443.56;4992565;28;20066;-71
2023/09/10 04:37:39;;;;;;;5.78;4.70;;;;;;;27.67;37.15;99447.22;4991223;28;20041;-71
2023/09/10 04:40:06;;;;;;;5.00;4.32;;;;;;;27.67;37.30;99460.63;4973373;28;20030;-71
2023/09/10 04:42:32;;;;;;;5.30;4.50;;;;;;;27.66;36.99;99462.47;4973348;28;20034;-71
2023/09/10 04:44:58;;;;;;;4.95;4.30;;;;;;;27.65;37.38;99450.03;4972835;28;20506;-71
2023/09/10 04:47:23;;;;;;;5.47;4.63;;;;;;;27.66;37.29;99450.91;4973180;28;20563;-71
2023/09/10 04:49:48;;;;;;;5.10;4.50;;;;;;;27.66;37.52;99453.56;4978914;28;20026;-71
2023/09/10 04:52:15;;;;;;;5.25;4.75;;;;;;;27.65;37.53;99457.25;4992459;28;20117;-71
2023/09/10 04:54:41;;;;;;;5.80;4.80;;;;;;;27.64;37.53;99464.44;4993706;28;20045;-71
2023/09/10 04:57:07;;;;;;;5.50;4.60;;;;;;;27.64;37.33;99477.00;4996278;28;20031;-72
2023/09/10 04:59:33;;;;;;;5.80;4.78;;;;;;;27.65;37.64;99484.88;4994476;28;20033;-71
2023/09/10 05:02:00;;;;;;;6.32;4.57;;;;;;;27.66;37.78;99491.09;4996069;28;20050;-71
2023/09/10 05:04:26;;;;;;;5.85;4.88;;;;;;;27.64;37.69;99496.59;4999812;28;20026;-71
2023/09/10 05:06:51;;;;;;;5.05;4.20;;;;;;;27.65;37.65;99494.78;5015752;28;20030;-72
2023/09/10 05:09:16;;;;;;;4.90;4.18;;;;;;;27.64;37.67;99498.44;5015878;28;20042;-71
2023/09/10 05:11:42;;;;;;;6.43;4.88;;;;;;;27.65;37.48;99502.81;5015839;28;20402;-71
2023/09/10 05:14:07;;;;;;;5.03;4.03;;;;;;;27.65;37.81;99497.44;5015087;28;20359;-72
2023/09/10 05:16:33;;;;;;;5.38;4.28;;;;;;;27.64;37.78;99503.81;4998222;28;20152;-70
2023/09/10 05:18:58;;;;;;;5.35;4.70;;;;;;;27.63;38.01;99508.31;4995916;28;20061;-71
2023/09/10 05:21:23;;;;;;;5.43;4.55;;;;;;;27.65;37.71;99510.84;4995635;28;20490;-70
2023/09/10 05:23:49;;;;;;;5.30;4.57;;;;;;;27.64;38.16;99509.16;4996039;28;20033;-71
2023/09/10 05:26:14;;;;;;;5.53;4.78;;;;;;;27.63;38.27;99505.63;4995984;28;20081;-72
2023/09/10 05:28:40;;;;;;;5.60;4.80;;;;;;;27.66;38.21;99507.19;4995442;28;20030;-71
2023/09/10 05:31:07;;;;;;;5.60;4.30;;;;;;;27.65;37.95;99510.84;4996014;28;20101;-71
2023/09/10 05:33:33;;;;;;;5.32;4.57;;;;;;;27.66;37.98;99507.19;4995850;28;20041;-71
2023/09/10 05:35:59;;;;;;;5.65;4.05;;;;;;;27.63;38.25;99502.94;4994268;28;20038;-70
2023/09/10 05:38:25;;;;;;;5.43;4.45;;;;;;;27.63;38.27;99507.44;4995676;28;20057;-71
2023/09/10 05:40:51;;;;;;;5.05;4.30;;;;;;;27.60;38.50;99504.06;4994222;28;20490;-71
2023/09/10 05:43:16;;;;;;;5.10;4.35;;;;;;;27.63;38.36;99510.13;4995162;28;20026;-71
2023/09/10 05:45:43;;;;;;;5.75;4.72;;;;;;;27.61;38.42;99508.44;4995386;28;20034;-71
2023/09/10 05:48:08;;;;;;;5.55;4.95;;;;;;;27.64;38.38;99503.81;4995415;28;20521;-71
2023/09/10 05:50:33;;;;;;;5.00;4.05;;;;;;;27.63;38.65;99494.03;4995382;28;20117;-71
2023/09/10 05:52:59;;;;;;;6.45;4.97;;;;;;;27.62;38.81;99493.22;4995387;28;20026;-71
2023/09/10 05:55:26;;;;;;;5.43;4.70;;;;;;;27.63;38.48;99502.09;4995414;28;20474;-71
2023/09/10 05:57:52;;;;;;;5.22;4.03;;;;;;;27.61;38.78;99503.06;4994942;28;20089;-71
2023/09/10 06:00:18;;;;;;;5.25;4.53;;;;;;;27.63;38.38;99502.09;4995241;28;20041;-72
2023/09/10 06:02:43;;;;;;;5.68;4.25;;;;;;;27.64;38.61;99503.81;4995033;28;20046;-71
2023/09/10 06:05:09;;;;;;;5.55;4.50;;;;;;;27.61;38.86;99497.72;5004715;28;20060;-71
2023/09/10 06:07:36;;;;;;;4.75;3.90;;;;;;;27.61;38.71;99500.38;5000894;28;20054;-71
2023/09/10 06:10:06;;;;;;;4.88;4.38;;;;;;;27.61;38.78;99505.75;4994921;28;20030;-71
2023/09/10 06:12:31;;;;;;;5.78;4.50;;;;;;;27.62;38.77;99501.25;4994662;28;20031;-71
2023/09/10 06:14:57;;;;;;;5.68;4.85;;;;;;;27.62;38.94;99495.91;4993550;28;20030;-72
2023/09/10 06:17:22;;;;;;;5.68;5.00;;;;;;;27.61;38.89;99505.75;4994961;28;20029;-71
2023/09/10 06:19:48;;;;;;;5.13;4.45;;;;;;;27.60;39.06;99497.88;4994684;28;20026;-71
2023/09/10 06:22:13;;;;;;;5.45;4.25;;;;;;;27.61;38.68;99488.84;4994826;28;20097;-71
2023/09/10 06:24:39;;;;;;;4.70;4.20;;;;;;;27.64;38.86;99490.41;4994721;28;20034;-71
2023/09/10 06:27:04;;;;;;;5.57;4.95;;;;;;;27.62;39.06;99495.91;4994201;28;20023;-71
2023/09/10 06:29:30;;;;;;;5.25;4.45;;;;;;;27.64;38.71;99487.72;4993310;28;20186;-71
2023/09/10 06:31:55;;;;;;;5.25;4.75;;;;;;;27.61;38.89;99494.19;4990602;28;20065;-71
2023/09/10 06:34:20;;;;;;;6.03;4.70;;;;;;;27.62;39.25;99485.16;4976308;28;20031;-71
2023/09/10 06:36:46;;;;;;;6.88;4.85;;;;;;;27.61;39.57;99472.75;4994649;28;20018;-71
2023/09/10 06:39:11;;;;;;;5.90;4.72;;;;;;;27.63;39.22;99472.59;4994594;28;20030;-72
2023/09/10 06:41:37;;;;;;;5.15;4.18;;;;;;;27.63;39.10;99477.97;4993525;28;20030;-72
2023/09/10 06:44:03;;;;;;;5.35;4.53;;;;;;;27.59;39.05;99486.28;4994557;28;20403;-71
2023/09/10 06:46:28;;;;;;;5.78;4.85;;;;;;;27.59;39.61;99485.44;4994376;28;20037;-70
2023/09/10 06:48:53;;;;;;;5.95;4.20;;;;;;;27.60;39.36;99493.34;4994340;28;20455;-72
2023/09/10 06:51:19;;;;;;;5.65;4.95;;;;;;;27.61;38.93;99496.88;4994316;28;20037;-71
2023/09/10 06:53:44;;;;;;;5.65;4.47;;;;;;;27.61;39.04;99505.75;4994160;28;20505;-71
2023/09/10 06:56:10;;;;;;;5.97;4.70;;;;;;;27.60;39.21;99498.69;4993510;28;20026;-71
2023/09/10 06:58:35;;;;;;;5.22;4.43;;;;;;;27.59;39.02;99497.00;4994188;28;20032;-72
2023/09/10 07:01:05;;;;;;;6.30;4.28;;;;;;;27.59;39.18;99502.38;4994010;28;20022;-71
2023/09/10 07:03:34;;;;;;;5.60;4.70;;;;;;;27.61;38.93;99511.13;4992709;28;20043;-71
2023/09/10 07:06:04;;;;;;;5.38;4.45;;;;;;;27.61;39.33;99503.06;5010283;28;20037;-72
2023/09/10 07:08:30;;;;;;;6.20;4.72;;;;;;;27.61;38.86;99500.38;5011680;28;20522;-71
2023/09/10 07:10:55;;;;;;;6.53;4.88;;;;;;;27.61;39.12;99500.38;4993753;28;20106;-71
2023/09/10 07:13:21;;;;;;;5.40;4.80;;;;;;;27.60;39.51;99493.34;4993713;28;20030;-71
2023/09/10 07:15:47;;;;;;;5.45;4.68;;;;;;;27.61;39.12;99495.03;4994033;28;20022;-72
2023/09/10 07:18:12;;;;;;;6.00;5.40;;;;;;;27.64;39.24;99498.44;4993694;28;20034;-71
2023/09/10 07:20:37;;;;;;;5.22;4.60;;;;;;;27.65;39.62;99500.13;4993860;28;20474;-71
2023/09/10 07:23:03;;;;;;;6.50;4.90;;;;;;;27.64;39.36;99501.13;4993679;28;20022;-71
2023/09/10 07:25:28;;;;;;;5.38;4.55;;;;;;;27.64;39.36;99501.94;4973865;28;20035;-71
2023/09/10 07:27:54;;;;;;;6.40;4.75;;;;;;;27.65;39.18;99492.91;4990892;28;20037;-71
2023/09/10 07:30:19;;;;;;;4.90;3.95;;;;;;;27.67;39.73;99498.16;4993646;28;20084;-71
2023/09/10 07:32:46;;;;;;;4.93;4.28;;;;;;;27.65;39.37;99502.81;4993348;28;20030;-71
2023/09/10 07:35:12;;;;;;;5.20;4.38;;;;;;;27.65;39.79;99500.13;4993462;28;20397;-71
2023/09/10 07:37:37;;;;;;;5.63;4.35;;;;;;;27.69;39.51;99504.25;4993390;28;20030;-71
2023/09/10 07:40:03;;;;;;;5.47;4.57;;;;;;;27.69;39.47;99501.56;4992993;28;20034;-71
2023/09/10 07:42:29;;;;;;;5.57;4.93;;;;;;;27.70;39.51;99497.91;4993366;28;20027;-72
2023/09/10 07:44:54;;;;;;;5.50;4.60;;;;;;;27.69;39.33;99498.88;4993403;28;20034;-72
2023/09/10 07:47:20;;;;;;;4.57;4.00;;;;;;;27.70;39.50;99503.25;4992987;28;20038;-70
2023/09/10 07:49:45;;;;;;;5.65;4.60;;;;;;;27.71;39.99;99499.59;4993250;28;20034;-71
2023/09/10 07:52:11;;;;;;;5.00;4.30;;;;;;;27.72;39.73;99506.63;4993185;28;20124;-72
2023/09/10 07:54:36;;;;;;;5.13;4.45;;;;;;;27.72;39.69;99506.63;4992944;28;20034;-71
2023/09/10 07:57:03;;;;;;;4.90;4.38;;;;;;;27.74;39.98;99515.38;4980382;28;20022;-71
2023/09/10 07:59:29;;;;;;;4.78;4.00;;;;;;;27.74;39.58;99512.69;4983060;28;20360;-72
2023/09/10 08:01:54;;;;;;;5.47;4.40;;;;;;;27.75;39.84;99511.75;4992878;28;20164;-71
2023/09/10 08:04:20;;;;;;;5.28;4.47;;;;;;;27.73;39.46;99519.06;4995872;28;20112;-71
2023/09/10 08:06:46;;;;;;;5.72;4.53;;;;;;;27.76;39.66;99513.44;5012621;28;20109;-72
2023/09/10 08:09:11;;;;;;;5.35;4.30;;;;;;;27.77;39.88;99515.13;5008978;28;20034;-70
2023/09/10 08:11:37;;;;;;;5.10;4.50;;;;;;;27.78;39.95;99527.53;4992653;28;20030;-72
2023/09/10 08:14:02;;;;;;;6.07;4.93;;;;;;;27.79;39.73;99520.34;4992587;28;20054;-71
2023/09/10 08:16:28;;;;;;;5.40;4.60;;;;;;;27.79;39.55;99513.13;4993075;28;20493;-71
2023/09/10 08:18:53;;;;;;;5.43;4.70;;;;;;;27.80;39.70;99525.56;4992209;28;20068;-72
2023/09/10 08:21:20;;;;;;;4.72;4.22;;;;;;;27.81;39.54;99516.56;4992945;28;20022;-70
2023/09/10 08:23:47;;;;;;;5.68;4.20;;;;;;;27.82;40.12;99518.25;4984826;28;20050;-70
2023/09/10 08:26:13;;;;;;;6.57;4.45;;;;;;;27.82;39.74;99507.50;4973348;28;20090;-71
2023/09/10 08:28:38;;;;;;;5.72;4.60;;;;;;;27.81;40.04;99521.91;4976940;28;20029;-70
2023/09/10 08:31:05;;;;;;;5.40;4.35;;;;;;;27.79;39.82;99521.19;4992231;28;20054;-71
2023/09/10 08:33:31;;;;;;;5.60;4.20;;;;;;;27.80;39.65;99525.56;4992479;28;20030;-71
2023/09/10 08:35:56;;;;;;;5.05;4.13;;;;;;;27.82;40.20;99512.88;4992596;28;20029;-72
2023/09/10 08:38:22;;;;;;;5.63;4.60;;;;;;;27.82;39.56;99512.88;4992594;28;20486;-71
2023/09/10 08:40:59;;;;;;;5.40;4.72;;;;;;;27.82;39.82;99517.38;4992759;28;20101;-70
2023/09/10 08:43:48;;;;;;;5.43;4.32;;;;;;;27.82;40.55;99512.03;4992489;28;20073;-71
2023/09/10 08:46:14;;;;;;;5.63;4.65;;;;;;;27.82;40.42;99507.50;4991186;28;20041;-71
2023/09/10 08:48:43;;;;;;;5.07;4.25;;;;;;;27.82;40.13;99510.19;4992547;28;20034;-71
2023/09/10 08:51:11;;;;;;;5.55;4.70;;;;;;;27.84;39.98;99505.53;4992184;28;20037;-71
2023/09/10 08:53:38;;;;;;;5.28;4.60;;;;;;;27.84;39.58;99505.53;4992471;28;20026;-71
2023/09/10 08:56:04;;;;;;;5.72;4.47;;;;;;;27.85;39.80;99511.75;4992486;28;20031;-71
2023/09/10 08:58:32;;;;;;;5.65;4.43;;;;;;;27.86;39.62;99508.94;4991269;28;20173;-72
2023/09/10 09:01:00;;;;;;;4.75;4.03;;;;;;;27.86;39.97;99508.94;4992049;28;20035;-71
2023/09/10 09:03:28;;;;;;;5.68;4.30;;;;;;;27.87;39.84;99510.63;4978950;28;20116;-71
2023/09/10 09:05:57;;;;;;;5.07;4.40;;;;;;;27.87;39.86;99494.53;4980502;28;20109;-72
2023/09/10 09:08:29;;;;;;;5.30;4.28;;;;;;;27.88;39.57;99506.09;4973147;28;20033;-71
2023/09/10 09:10:55;;;;;;;5.57;4.60;;;;;;;27.88;39.90;99501.59;4973686;28;20042;-72
2023/09/10 09:13:21;;;;;;;5.53;4.28;;;;;;;27.91;39.71;99499.63;4992264;28;20027;-70
2023/09/10 09:15:48;;;;;;;5.60;4.50;;;;;;;27.92;39.70;99506.66;4992257;28;20093;-71
2023/09/10 09:18:16;;;;;;;5.03;4.20;;;;;;;27.93;39.69;99503.84;4982254;28;20022;-71
2023/09/10 09:20:48;;;;;;;4.90;3.92;;;;;;;27.93;39.94;99497.66;4991963;28;20038;-72
2023/09/10 09:23:20;;;;;;;4.90;4.10;;;;;;;27.93;39.57;99493.13;4992403;28;20031;-71
2023/09/10 09:25:46;;;;;;;6.00;4.32;;;;;;;27.95;39.44;99488.50;4992294;28;20031;-72
2023/09/10 09:28:12;;;;;;;5.43;4.40;;;;;;;27.97;39.76;99493.69;4992359;28;20050;-71
2023/09/10 09:30:38;;;;;;;5.10;4.28;;;;;;;27.97;39.71;99485.66;4992356;28;20113;-72
2023/09/10 09:33:04;;;;;;;6.25;4.55;;;;;;;27.97;39.28;99482.97;4992024;28;20110;-72
2023/09/10 09:35:32;;;;;;;5.20;4.60;;;;;;;27.99;39.67;99473.81;4991881;28;20041;-71
2023/09/10 09:38:04;;;;;;;4.90;4.40;;;;;;;28.00;39.19;99475.50;4992189;28;20035;-71
2023/09/10 09:40:29;;;;;;;4.70;4.05;;;;;;;28.02;39.14;99475.34;4992179;28;20441;-71
2023/09/10 09:42:57;;;;;;;5.60;4.60;;;;;;;28.04;39.24;99464.50;4992009;28;20081;-70
2023/09/10 09:45:23;;;;;;;5.10;4.18;;;;;;;28.03;39.57;99463.63;4993814;28;20026;-71
2023/09/10 09:47:49;;;;;;;4.63;4.07;;;;;;;28.04;39.40;99461.81;4995522;28;20478;-71
2023/09/10 09:50:14;;;;;;;6.70;4.60;;;;;;;28.04;39.36;99457.31;4995010;28;20109;-71
2023/09/10 09:52:40;;;;;;;5.22;4.18;;;;;;;28.05;39.34;99452.78;4995505;28;20046;-71
2023/09/10 09:55:07;;;;;;;4.93;4.32;;;;;;;28.04;39.50;99457.31;4995594;28;20026;-71
2023/09/10 09:57:36;;;;;;;6.53;4.70;;;;;;;28.05;39.56;99453.63;4995432;28;20105;-71
2023/09/10 10:00:07;;;;;;;5.40;4.20;;;;;;;28.05;39.61;99464.38;4995025;28;20517;-71
2023/09/10 10:02:33;;;;;;;4.70;4.20;;;;;;;28.05;39.32;99453.63;4996833;28;20077;-71
2023/09/10 10:04:59;;;;;;;5.63;4.60;;;;;;;28.07;39.70;99456.16;5002665;28;20022;-72
2023/09/10 10:07:26;;;;;;;5.13;4.35;;;;;;;28.06;39.35;99455.31;5014762;28;20076;-71
2023/09/10 10:09:52;;;;;;;5.85;4.45;;;;;;;28.07;39.70;99450.78;5013456;28;20029;-71
2023/09/10 10:12:18;;;;;;;5.00;4.30;;;;;;;28.07;39.77;99443.59;5014673;28;20022;-72
2023/09/10 10:14:45;;;;;;;5.63;4.57;;;;;;;28.09;39.45;99440.78;5014576;28;20033;-72
2023/09/10 10:17:12;;;;;;;5.90;4.72;;;;;;;28.10;39.42;99434.44;5014598;28;20033;-71
2023/09/10 10:19:40;;;;;;;6.18;4.53;;;;;;;28.11;39.40;99446.84;5014088;28;20061;-72
2023/09/10 10:22:06;;;;;;;5.53;4.47;;;;;;;28.12;39.79;99444.03;5002259;28;20031;-71
2023/09/10 10:24:33;;;;;;;5.38;4.35;;;;;;;28.12;39.71;99449.41;4994908;28;20386;-71
2023/09/10 10:27:01;;;;;;;5.22;4.13;;;;;;;28.12;39.71;99436.00;4994878;28;20148;-72
2023/09/10 10:29:27;;;;;;;5.30;4.50;;;;;;;28.15;39.18;99442.91;4994888;28;20395;-71
2023/09/10 10:32:02;;;;;;;5.68;4.40;;;;;;;28.17;39.67;99445.44;4994679;28;20030;-69
2023/09/10 10:34:35;;;;;;;6.43;4.68;;;;;;;28.17;39.62;99434.72;4974974;28;20037;-71
2023/09/10 10:37:22;;;;;;;5.15;4.28;;;;;;;28.18;39.62;99428.38;4981258;28;20025;-71
2023/09/10 10:40:12;;;;;;;5.30;4.60;;;;;;;28.18;39.78;99431.06;4994735;28;20407;-71
2023/09/10 10:42:48;;;;;;;5.13;4.13;;;;;;;28.20;39.42;99431.75;4994440;28;20035;-71
2023/09/10 10:45:17;;;;;;;5.10;4.38;;;;;;;28.21;39.83;99436.13;4994603;28;20040;-71
2023/09/10 10:47:45;;;;;;;5.55;4.75;;;;;;;28.20;39.45;99423.69;4993960;28;20023;-71
2023/09/10 10:50:11;;;;;;;5.55;4.72;;;;;;;28.22;39.46;99421.75;4994089;28;20027;-71
2023/09/10 10:53:19;;;;;;;4.95;4.22;;;;;;;28.22;39.36;99422.59;4993720;28;20023;-72
2023/09/10 10:55:47;;;;;;;4.85;4.10;;;;;;;28.23;39.70;99418.09;4989096;28;20038;-72
2023/09/10 10:58:14;;;;;;;5.20;4.35;;;;;;;28.24;39.45;99414.41;4994186;28;20109;-72
2023/09/10 11:00:39;;;;;;;4.78;4.10;;;;;;;28.24;39.54;99415.25;4993809;28;20022;-72
2023/09/10 11:03:10;;;;;;;4.80;4.15;;;;;;;28.26;39.57;99412.41;4993619;28;20061;-70
2023/09/10 11:05:53;;;;;;;4.80;4.20;;;;;;;28.26;39.52;99407.06;4994680;28;20143;-72
2023/09/10 11:08:41;;;;;;;6.30;4.60;;;;;;;28.27;39.51;99396.19;4993813;28;20039;-71
2023/09/10 11:11:27;;;;;;;4.72;4.00;;;;;;;28.30;39.53;99396.88;4994113;28;20027;-71
2023/09/10 11:14:05;;;;;;;5.28;3.88;;;;;;;28.32;39.72;99390.38;4974293;28;20030;-71
2023/09/10 11:16:42;;;;;;;5.63;4.53;;;;;;;28.32;39.29;99379.66;4974084;28;20035;-72
2023/09/10 11:19:46;;;;;;;5.70;3.97;;;;;;;28.33;39.57;99370.59;4993678;28;20025;-71
2023/09/10 11:22:11;;;;;;;6.38;4.07;;;;;;;28.34;39.49;99372.31;4993758;28;20084;-71
2023/09/10 11:24:40;;;;;;;4.30;3.80;;;;;;;28.37;39.89;99371.19;4993844;28;20030;-72
2023/09/10 11:27:27;;;;;;;5.30;4.50;;;;;;;28.38;39.95;99365.66;4993535;28;20058;-71
2023/09/10 11:30:18;;;;;;;5.38;4.45;;;;;;;28.39;40.04;99364.66;4993758;28;20019;-71
2023/09/10 11:32:44;;;;;;;5.90;4.43;;;;;;;28.40;39.78;99363.69;4993437;28;20022;-72
2023/09/10 11:35:18;;;;;;;6.50;4.18;;;;;;;28.40;39.66;99357.47;4993372;28;20037;-71